Time;durP1;ratioP1;P1;durP2;ratioP2;P2;SDS_P1;SDS_P2;PMS_P1;PMS_P2;Temp;Humidity;BMP_temperature;BMP_pressure;BME280_temperature;BME280_humidity;BME280_pressure;Samples;Min_cycle;Max_cycle;Signal;HPM_P1;HPM_P2
2023/12/07 00:00:34;;;;;;;14.52;9.88;;;3.40;99.90;;;;;;4156560;28;20114;-74
2023/12/07 00:02:35;;;;;;;15.90;9.77;;;3.40;99.90;;;;;;4150971;28;20480;-73
2023/12/07 00:04:35;;;;;;;17.67;9.52;;;3.40;99.90;;;;;;4158288;28;20424;-74
2023/12/07 00:06:36;;;;;;;15.48;9.45;;;3.40;99.90;;;;;;4154001;28;20394;-74
2023/12/07 00:08:36;;;;;;;14.98;9.80;;;3.40;99.90;;;;;;4152133;28;20433;-74
2023/12/07 00:10:37;;;;;;;13.75;9.68;;;3.40;99.90;;;;;;4152651;28;20403;-74
2023/12/07 00:12:37;;;;;;;13.60;9.35;;;3.50;99.90;;;;;;4149957;28;20029;-74
2023/12/07 00:14:38;;;;;;;18.52;10.45;;;3.50;99.90;;;;;;4157604;28;20033;-73
2023/12/07 00:16:39;;;;;;;16.88;10.60;;;3.50;99.90;;;;;;4159683;28;20050;-73
2023/12/07 00:18:39;;;;;;;16.63;10.23;;;3.50;99.90;;;;;;4154793;28;20476;-74
2023/12/07 00:20:40;;;;;;;15.75;10.43;;;3.50;99.90;;;;;;4145820;28;20392;-73
2023/12/07 00:22:41;;;;;;;14.77;10.32;;;3.60;99.90;;;;;;4156211;28;20486;-73
2023/12/07 00:24:42;;;;;;;18.30;11.32;;;3.50;99.90;;;;;;4154158;28;20049;-74
2023/12/07 00:26:42;;;;;;;17.48;10.93;;;3.50;99.90;;;;;;4148550;28;20026;-73
2023/12/07 00:28:43;;;;;;;23.05;12.07;;;3.60;99.90;;;;;;4155354;28;21521;-74
2023/12/07 00:30:43;;;;;;;17.58;10.68;;;3.60;99.90;;;;;;4147484;28;20373;-74
2023/12/07 00:32:44;;;;;;;15.18;10.48;;;3.60;99.90;;;;;;4152490;28;20057;-74
2023/12/07 00:34:44;;;;;;;18.67;10.90;;;3.60;99.90;;;;;;4140579;28;20036;-74
2023/12/07 00:36:45;;;;;;;16.10;10.90;;;3.60;99.90;;;;;;4141058;28;20037;-74
2023/12/07 00:38:46;;;;;;;14.35;8.85;;;3.60;99.90;;;;;;4133179;28;20034;-73
2023/12/07 00:40:46;;;;;;;13.98;8.85;;;3.60;99.90;;;;;;4140391;28;20053;-74
2023/12/07 00:42:47;;;;;;;12.70;9.57;;;3.60;99.90;;;;;;4158878;28;20487;-73
2023/12/07 00:44:48;;;;;;;15.55;10.07;;;3.60;99.90;;;;;;4156850;28;20030;-74
2023/12/07 00:46:49;;;;;;;13.90;9.27;;;3.60;99.90;;;;;;4142521;28;20041;-74
2023/12/07 00:48:49;;;;;;;13.27;9.57;;;3.60;99.90;;;;;;4154033;28;20125;-73
2023/12/07 00:50:50;;;;;;;14.90;9.30;;;3.60;99.90;;;;;;4147512;28;20033;-73
2023/12/07 00:52:50;;;;;;;14.60;9.60;;;3.60;99.90;;;;;;4133907;28;20117;-74
2023/12/07 00:54:51;;;;;;;14.25;9.38;;;3.60;99.90;;;;;;4148906;28;20030;-74
2023/12/07 00:56:52;;;;;;;13.40;9.32;;;3.60;99.90;;;;;;4152974;28;20499;-74
2023/12/07 00:58:52;;;;;;;13.80;9.30;;;3.60;99.90;;;;;;4155973;28;20616;-74
2023/12/07 01:00:54;;;;;;;15.25;10.00;;;3.60;99.90;;;;;;4156975;28;20036;-74
2023/12/07 01:02:54;;;;;;;15.18;9.45;;;3.60;99.90;;;;;;4149657;28;20034;-73
2023/12/07 01:04:55;;;;;;;14.10;9.38;;;3.60;99.90;;;;;;4152086;28;20033;-74
2023/12/07 01:06:56;;;;;;;16.45;9.52;;;3.60;99.90;;;;;;4124211;28;20026;-74
2023/12/07 01:08:56;;;;;;;13.75;9.25;;;3.60;99.90;;;;;;4155437;28;20056;-74
2023/12/07 01:10:57;;;;;;;12.85;8.70;;;3.60;99.90;;;;;;4147378;28;20030;-74
2023/12/07 01:12:58;;;;;;;12.05;9.07;;;3.60;99.90;;;;;;4157150;28;20030;-73
2023/12/07 01:14:58;;;;;;;12.68;9.15;;;3.60;99.90;;;;;;4155119;28;20329;-74
2023/12/07 01:16:59;;;;;;;20.20;9.32;;;3.50;99.90;;;;;;4135546;28;20030;-74
2023/12/07 01:18:59;;;;;;;13.10;9.40;;;3.50;99.90;;;;;;4150863;28;20407;-74
2023/12/07 01:21:00;;;;;;;12.80;8.90;;;3.50;99.90;;;;;;4148406;28;20124;-73
2023/12/07 01:23:01;;;;;;;17.35;9.85;;;3.40;99.90;;;;;;4135888;28;20525;-74
2023/12/07 01:25:02;;;;;;;17.70;9.95;;;3.40;99.90;;;;;;4155137;28;20080;-73
2023/12/07 01:27:03;;;;;;;15.02;10.20;;;3.40;99.90;;;;;;4148597;28;20400;-74
2023/12/07 01:29:03;;;;;;;15.15;10.55;;;3.40;99.90;;;;;;4152901;28;20033;-73
2023/12/07 01:31:04;;;;;;;14.55;9.05;;;3.40;99.90;;;;;;4148648;28;20395;-73
2023/12/07 01:33:04;;;;;;;16.02;10.80;;;3.30;99.90;;;;;;4146146;28;20399;-73
2023/12/07 01:35:06;;;;;;;16.02;10.30;;;3.30;99.90;;;;;;4150584;28;20400;-74
2023/12/07 01:37:07;;;;;;;15.02;9.27;;;3.30;99.90;;;;;;4154062;28;20029;-74
2023/12/07 01:39:11;;;;;;;15.98;10.27;;;3.30;99.90;;;;;;4145339;28;20125;-73
2023/12/07 01:41:11;;;;;;;14.35;9.65;;;3.20;99.90;;;;;;4156226;28;20046;-73
2023/12/07 01:43:12;;;;;;;15.82;9.60;;;3.20;99.90;;;;;;4153449;28;20118;-74
2023/12/07 01:45:13;;;;;;;15.27;10.48;;;3.20;99.90;;;;;;4133430;28;20476;-74
2023/12/07 01:47:14;;;;;;;15.43;10.30;;;3.20;99.90;;;;;;4151119;28;20044;-73
2023/12/07 01:49:15;;;;;;;13.80;9.45;;;3.20;99.90;;;;;;4155052;28;20100;-73
2023/12/07 01:51:17;;;;;;;15.85;10.23;;;3.10;99.90;;;;;;4153777;28;20034;-73
2023/12/07 01:53:19;;;;;;;14.70;10.32;;;3.10;99.90;;;;;;4154098;28;20759;-73
2023/12/07 01:55:21;;;;;;;15.32;10.25;;;3.10;99.90;;;;;;4119807;28;20034;-74
2023/12/07 01:57:22;;;;;;;19.83;11.38;;;3.10;99.90;;;;;;4155567;28;20120;-74
2023/12/07 01:59:24;;;;;;;16.45;11.13;;;3.10;99.90;;;;;;4146236;28;20054;-74
2023/12/07 02:01:24;;;;;;;17.08;10.95;;;3.10;99.90;;;;;;4155682;28;20030;-73
2023/12/07 02:03:27;;;;;;;17.65;11.02;;;3.00;99.90;;;;;;4152742;28;20067;-73
2023/12/07 02:05:27;;;;;;;;;;;3.00;99.90;;;;;;4148502;28;20438;-74
2023/12/07 02:07:30;;;;;;;17.40;11.55;;;3.00;99.90;;;;;;4150826;28;20004;-74
2023/12/07 02:09:31;;;;;;;;;;;3.00;99.90;;;;;;4152922;28;20045;-74
2023/12/07 02:11:32;;;;;;;20.13;12.35;;;3.00;99.90;;;;;;4130995;28;19917;-73
2023/12/07 02:13:33;;;;;;;18.90;12.40;;;3.00;99.90;;;;;;4148430;28;20026;-74
2023/12/07 02:15:34;;;;;;;21.10;13.00;;;3.00;99.90;;;;;;4140765;28;20041;-73
2023/12/07 02:18:00;;;;;;;22.08;13.00;;;2.90;99.90;;;;;;4147890;28;20499;-74
2023/12/07 02:20:20;;;;;;;19.20;12.07;;;2.90;99.90;;;;;;4154270;28;20510;-73
2023/12/07 02:22:37;;;;;;;22.55;12.85;;;2.90;99.90;;;;;;4148700;28;20037;-74
2023/12/07 02:24:42;;;;;;;22.77;12.82;;;2.90;99.90;;;;;;4155667;28;20495;-73
2023/12/07 02:26:42;;;;;;;19.95;11.93;;;2.80;99.90;;;;;;4151459;28;20048;-73
2023/12/07 02:28:43;;;;;;;21.90;13.98;;;2.80;99.90;;;;;;4157373;28;20057;-73
2023/12/07 02:30:44;;;;;;;22.38;13.57;;;2.80;99.90;;;;;;4147872;28;20034;-74
2023/12/07 02:32:45;;;;;;;21.02;12.52;;;2.80;99.90;;;;;;4156883;28;20022;-73
2023/12/07 02:34:46;;;;;;;20.38;12.25;;;2.80;99.90;;;;;;4155157;28;20442;-73
2023/12/07 02:36:49;;;;;;;20.67;12.88;;;2.80;99.90;;;;;;4150403;28;20125;-74
2023/12/07 02:38:51;;;;;;;24.88;13.38;;;2.80;99.90;;;;;;4145937;28;20097;-73
2023/12/07 02:40:55;;;;;;;22.98;14.00;;;2.90;99.90;;;;;;4150504;28;20129;-73
2023/12/07 02:42:57;;;;;;;22.35;13.35;;;2.90;99.90;;;;;;4152569;28;20411;-74
2023/12/07 02:44:57;;;;;;;27.40;14.88;;;2.90;99.90;;;;;;4150677;28;20426;-73
2023/12/07 02:46:59;;;;;;;24.02;14.15;;;2.90;99.90;;;;;;4150402;28;20101;-73
2023/12/07 02:48:59;;;;;;;20.33;12.32;;;2.90;99.90;;;;;;4153343;28;20042;-73
2023/12/07 02:51:00;;;;;;;23.15;13.48;;;2.90;99.90;;;;;;4149338;28;20030;-73
2023/12/07 02:53:00;;;;;;;23.67;13.63;;;2.90;99.90;;;;;;4155015;28;20494;-73
2023/12/07 02:55:02;;;;;;;22.10;12.88;;;2.90;99.90;;;;;;4152758;28;20480;-73
2023/12/07 02:57:03;;;;;;;23.85;13.65;;;2.90;99.90;;;;;;4154419;28;20037;-73
2023/12/07 02:59:03;;;;;;;25.98;14.63;;;2.90;99.90;;;;;;4149608;28;20449;-73
2023/12/07 03:01:04;;;;;;;27.60;14.90;;;2.80;99.90;;;;;;4151200;28;20041;-73
2023/12/07 03:03:05;;;;;;;22.27;12.93;;;2.70;99.90;;;;;;4147892;28;20029;-73
2023/12/07 03:05:06;;;;;;;24.33;13.32;;;2.70;99.90;;;;;;4154425;28;20497;-73
2023/12/07 03:07:07;;;;;;;23.93;13.43;;;2.60;99.90;;;;;;4147633;28;20034;-73
2023/12/07 03:09:08;;;;;;;24.08;13.57;;;2.70;99.90;;;;;;4148857;28;20454;-73
2023/12/07 03:11:08;;;;;;;26.08;14.02;;;2.70;99.90;;;;;;4150089;28;20038;-73
2023/12/07 03:13:09;;;;;;;27.65;14.88;;;2.70;99.90;;;;;;4153013;28;20037;-74
2023/12/07 03:15:10;;;;;;;22.48;14.05;;;2.60;99.90;;;;;;4155871;28;20119;-73
2023/12/07 03:17:10;;;;;;;21.85;13.35;;;2.60;99.90;;;;;;4154362;28;20033;-73
2023/12/07 03:19:11;;;;;;;20.23;12.63;;;2.70;99.90;;;;;;4151335;28;20521;-73
2023/12/07 03:21:12;;;;;;;22.23;12.65;;;2.70;99.90;;;;;;4142676;28;20116;-73
2023/12/07 03:23:12;;;;;;;20.90;13.05;;;2.70;99.90;;;;;;4147432;28;20029;-73
2023/12/07 03:25:13;;;;;;;21.70;13.60;;;2.70;99.90;;;;;;4135475;28;20046;-73
2023/12/07 03:27:13;;;;;;;23.40;14.15;;;2.80;99.90;;;;;;4137778;28;20045;-73
2023/12/07 03:29:14;;;;;;;20.08;12.23;;;2.80;99.90;;;;;;4134708;28;20041;-74
2023/12/07 03:31:15;;;;;;;22.38;13.27;;;2.80;99.90;;;;;;4138250;28;20041;-74
2023/12/07 03:33:15;;;;;;;21.27;13.43;;;2.80;99.90;;;;;;4149134;28;20053;-74
2023/12/07 03:35:16;;;;;;;21.98;13.57;;;2.80;99.90;;;;;;4137451;28;20049;-74
2023/12/07 03:37:17;;;;;;;23.20;13.02;;;2.80;99.90;;;;;;4147771;28;20037;-73
2023/12/07 03:39:25;;;;;;;20.92;12.98;;;2.80;99.90;;;;;;4137792;28;20045;-73
2023/12/07 03:41:25;;;;;;;19.40;12.45;;;2.80;99.90;;;;;;4153696;28;20026;-74
2023/12/07 03:43:26;;;;;;;22.02;12.93;;;2.80;99.90;;;;;;4146195;28;20037;-73
2023/12/07 03:45:28;;;;;;;22.77;13.70;;;2.80;99.90;;;;;;4142538;28;20112;-73
2023/12/07 03:47:28;;;;;;;23.20;13.90;;;2.80;99.90;;;;;;4160800;28;20030;-74
2023/12/07 03:49:29;;;;;;;22.90;14.02;;;2.80;99.90;;;;;;4149037;28;20044;-73
2023/12/07 03:51:30;;;;;;;26.25;15.18;;;2.80;99.90;;;;;;4155376;28;20057;-72
2023/12/07 03:53:30;;;;;;;24.05;14.82;;;2.80;99.90;;;;;;4152050;28;20029;-74
2023/12/07 03:55:31;;;;;;;25.38;14.52;;;2.80;99.90;;;;;;4149898;28;20095;-74
2023/12/07 03:57:32;;;;;;;26.05;15.60;;;2.80;99.90;;;;;;4157304;28;20387;-73
2023/12/07 03:59:35;;;;;;;25.73;15.68;;;2.80;99.90;;;;;;4151112;28;20033;-73
2023/12/07 04:01:36;;;;;;;22.80;14.18;;;2.80;99.90;;;;;;4149866;28;20046;-74
2023/12/07 04:03:37;;;;;;;25.20;15.05;;;2.80;99.90;;;;;;4154176;28;20101;-74
2023/12/07 04:05:38;;;;;;;26.85;15.15;;;2.80;99.90;;;;;;4145293;28;20030;-73
2023/12/07 04:07:38;;;;;;;23.38;14.30;;;2.80;99.90;;;;;;4151978;28;20100;-74
2023/12/07 04:09:39;;;;;;;25.88;14.15;;;2.80;99.90;;;;;;4144591;28;20778;-74
2023/12/07 04:11:40;;;;;;;21.63;12.98;;;2.80;99.90;;;;;;4149685;28;20583;-74
2023/12/07 04:13:41;;;;;;;20.52;13.25;;;2.80;99.90;;;;;;4146765;28;20399;-73
2023/12/07 04:15:42;;;;;;;20.77;12.73;;;2.80;99.90;;;;;;4149663;28;20033;-74
2023/12/07 04:17:42;;;;;;;20.85;13.05;;;2.80;99.90;;;;;;4138015;28;20829;-73
2023/12/07 04:19:43;;;;;;;20.95;13.40;;;2.70;99.90;;;;;;4122945;28;20054;-74
2023/12/07 04:21:44;;;;;;;19.02;12.27;;;2.70;99.90;;;;;;4129672;28;20033;-73
2023/12/07 04:23:44;;;;;;;21.55;12.98;;;2.70;99.90;;;;;;4156616;28;20029;-74
2023/12/07 04:25:45;;;;;;;20.00;12.85;;;2.70;99.90;;;;;;4156518;28;20042;-74
2023/12/07 04:27:45;;;;;;;19.70;13.30;;;2.70;99.90;;;;;;4138653;28;20113;-74
2023/12/07 04:29:46;;;;;;;18.92;12.05;;;2.80;99.90;;;;;;4146299;28;20491;-74
2023/12/07 04:31:46;;;;;;;20.52;13.07;;;2.80;99.90;;;;;;4151934;28;20025;-74
2023/12/07 04:33:47;;;;;;;20.25;12.88;;;2.70;99.90;;;;;;4133942;28;20420;-74
2023/12/07 04:35:48;;;;;;;21.67;13.50;;;2.80;99.90;;;;;;4155771;28;20026;-73
2023/12/07 04:37:48;;;;;;;21.08;13.15;;;2.80;99.90;;;;;;4147400;28;20030;-73
2023/12/07 04:39:49;;;;;;;19.25;12.57;;;2.80;99.90;;;;;;4149439;28;20041;-74
2023/12/07 04:41:49;;;;;;;22.77;14.65;;;2.80;99.90;;;;;;4137598;28;20026;-73
2023/12/07 04:43:50;;;;;;;19.52;12.63;;;2.80;99.90;;;;;;4132109;28;20034;-74
2023/12/07 04:45:50;;;;;;;19.15;12.98;;;2.80;99.90;;;;;;4154398;28;20037;-74
2023/12/07 04:47:51;;;;;;;31.52;14.90;;;2.80;99.90;;;;;;4148545;28;20034;-74
2023/12/07 04:49:52;;;;;;;20.20;13.38;;;2.80;99.90;;;;;;4151311;28;20109;-71
2023/12/07 04:51:52;;;;;;;22.42;14.45;;;2.80;99.90;;;;;;4148608;28;20442;-72
2023/12/07 04:53:53;;;;;;;21.48;12.65;;;2.80;99.90;;;;;;4158630;28;20029;-71
2023/12/07 04:55:53;;;;;;;20.83;13.38;;;2.80;99.90;;;;;;4155181;28;20488;-71
2023/12/07 04:57:54;;;;;;;23.10;13.38;;;2.80;99.90;;;;;;4156656;28;20484;-71
2023/12/07 04:59:55;;;;;;;22.23;13.85;;;2.80;99.90;;;;;;4150249;28;20493;-71
2023/12/07 05:01:56;;;;;;;23.83;13.77;;;2.80;99.90;;;;;;4153470;28;20038;-72
2023/12/07 05:03:56;;;;;;;22.58;12.70;;;2.80;99.90;;;;;;4152786;28;20046;-71
2023/12/07 05:05:57;;;;;;;19.33;12.50;;;2.70;99.90;;;;;;4151123;28;20033;-72
2023/12/07 05:07:57;;;;;;;15.77;11.48;;;2.80;99.90;;;;;;4160237;28;20026;-71
2023/12/07 05:09:58;;;;;;;23.13;13.27;;;2.70;99.90;;;;;;4155386;28;20373;-71
2023/12/07 05:11:59;;;;;;;31.65;13.18;;;2.70;99.90;;;;;;4138473;28;20106;-71
2023/12/07 05:13:59;;;;;;;15.75;11.50;;;2.70;99.90;;;;;;4151900;28;20116;-71
2023/12/07 05:16:00;;;;;;;16.75;11.23;;;2.70;99.90;;;;;;4157448;28;20029;-72
2023/12/07 05:18:00;;;;;;;17.65;11.85;;;2.60;99.90;;;;;;4157232;28;20025;-71
2023/12/07 05:20:02;;;;;;;17.90;12.02;;;2.60;99.90;;;;;;4154790;28;20037;-73
2023/12/07 05:22:03;;;;;;;15.73;10.60;;;2.70;99.90;;;;;;4156128;28;20072;-71
2023/12/07 05:24:03;;;;;;;14.65;10.35;;;2.60;99.90;;;;;;4136870;28;20041;-71
2023/12/07 05:26:04;;;;;;;16.75;11.02;;;2.60;99.90;;;;;;4152860;28;20737;-71
2023/12/07 05:28:05;;;;;;;16.92;11.68;;;2.60;99.90;;;;;;4153102;28;20040;-73
2023/12/07 05:30:07;;;;;;;16.90;11.45;;;2.60;99.90;;;;;;4138491;28;20420;-71
2023/12/07 05:32:08;;;;;;;16.00;11.48;;;2.60;99.90;;;;;;4148834;28;20038;-71
2023/12/07 05:34:08;;;;;;;18.35;12.35;;;2.60;99.90;;;;;;4143356;28;20554;-71
2023/12/07 05:36:09;;;;;;;17.58;11.98;;;2.60;99.90;;;;;;4152925;28;20033;-71
2023/12/07 05:38:09;;;;;;;16.02;11.45;;;2.60;99.90;;;;;;4153954;28;20039;-71
2023/12/07 05:40:12;;;;;;;19.33;12.57;;;2.50;99.90;;;;;;4150156;28;20509;-72
2023/12/07 05:42:12;;;;;;;19.08;12.70;;;2.50;99.90;;;;;;4152592;28;20431;-71
2023/12/07 05:44:14;;;;;;;17.50;12.70;;;2.50;99.90;;;;;;4153729;28;20076;-69
2023/12/07 05:46:15;;;;;;;19.83;12.73;;;2.50;99.90;;;;;;4151846;28;21258;-72
2023/12/07 05:48:16;;;;;;;19.20;11.60;;;2.40;99.90;;;;;;4151931;28;20035;-72
2023/12/07 05:50:16;;;;;;;17.80;11.80;;;2.50;99.90;;;;;;4152035;28;20457;-71
2023/12/07 05:52:17;;;;;;;17.00;11.65;;;2.40;99.90;;;;;;4147007;28;20120;-71
2023/12/07 05:54:17;;;;;;;18.13;12.13;;;2.50;99.90;;;;;;4154053;28;20100;-71
2023/12/07 05:56:20;;;;;;;18.70;12.90;;;2.50;99.90;;;;;;4157018;28;20052;-71
2023/12/07 05:58:20;;;;;;;;;;;2.50;99.90;;;;;;4152139;28;20022;-71
2023/12/07 06:00:21;;;;;;;18.92;12.45;;;2.50;99.90;;;;;;4124647;28;20249;-74
2023/12/07 06:02:22;;;;;;;18.05;12.80;;;2.40;99.90;;;;;;4132683;28;20118;-74
2023/12/07 06:04:22;;;;;;;18.25;12.30;;;2.40;99.90;;;;;;4156170;28;20040;-73
2023/12/07 06:06:23;;;;;;;18.20;12.30;;;2.40;99.90;;;;;;4150987;28;20033;-74
2023/12/07 06:08:24;;;;;;;21.63;13.68;;;2.40;99.90;;;;;;4146742;28;20579;-74
2023/12/07 06:10:25;;;;;;;22.80;13.43;;;2.40;99.90;;;;;;4151169;28;20029;-74
2023/12/07 06:12:25;;;;;;;22.10;13.63;;;2.40;99.90;;;;;;4148212;28;20034;-73
2023/12/07 06:14:29;;;;;;;17.65;12.43;;;2.30;99.90;;;;;;4155729;28;20037;-74
2023/12/07 06:16:30;;;;;;;18.60;12.30;;;2.30;99.90;;;;;;4155675;28;20034;-74
2023/12/07 06:18:30;;;;;;;16.92;11.52;;;2.20;99.90;;;;;;4149861;28;20479;-74
2023/12/07 06:20:31;;;;;;;18.05;12.15;;;2.30;99.90;;;;;;4136757;28;20479;-74
2023/12/07 06:22:32;;;;;;;17.13;11.52;;;2.30;99.90;;;;;;4136503;28;20034;-73
2023/12/07 06:24:33;;;;;;;17.13;11.70;;;2.30;99.90;;;;;;4153699;28;20096;-74
2023/12/07 06:26:33;;;;;;;17.08;11.30;;;2.30;99.90;;;;;;4151767;28;20060;-73
2023/12/07 06:28:34;;;;;;;21.80;13.23;;;2.40;99.90;;;;;;4150771;28;20063;-74
2023/12/07 06:30:34;;;;;;;22.58;13.32;;;2.40;99.90;;;;;;4150462;28;20508;-75
2023/12/07 06:32:35;;;;;;;20.98;13.60;;;2.40;99.90;;;;;;4155952;28;20112;-74
2023/12/07 06:34:40;;;;;;;20.52;13.30;;;2.30;99.90;;;;;;4149016;28;20091;-74
2023/12/07 06:36:41;;;;;;;21.35;13.15;;;2.30;99.90;;;;;;4152610;28;20121;-74
2023/12/07 06:38:41;;;;;;;24.85;14.18;;;2.30;99.90;;;;;;4146541;28;20057;-74
2023/12/07 06:40:43;;;;;;;19.98;13.02;;;2.30;99.90;;;;;;4150325;28;20846;-73
2023/12/07 06:42:44;;;;;;;21.20;13.02;;;2.30;99.90;;;;;;4136639;28;20041;-74
2023/12/07 06:44:51;;;;;;;22.48;14.43;;;2.30;99.90;;;;;;4154602;28;20034;-74
2023/12/07 06:46:52;;;;;;;20.23;13.05;;;2.30;99.90;;;;;;4142565;28;20031;-74
2023/12/07 06:48:52;;;;;;;21.35;13.90;;;2.30;99.90;;;;;;4128485;28;20066;-74
2023/12/07 06:50:53;;;;;;;20.95;13.95;;;2.30;99.90;;;;;;4130318;28;20562;-74
2023/12/07 06:52:53;;;;;;;20.13;12.65;;;2.30;99.90;;;;;;4154925;28;20399;-74
2023/12/07 06:54:54;;;;;;;22.25;13.93;;;2.40;99.90;;;;;;4149525;28;20377;-74
2023/12/07 06:56:55;;;;;;;21.45;13.98;;;2.30;99.90;;;;;;4151650;28;20036;-74
2023/12/07 06:58:56;;;;;;;21.85;14.27;;;2.40;99.90;;;;;;4151835;28;20065;-74
2023/12/07 07:00:57;;;;;;;23.30;13.88;;;2.40;99.90;;;;;;4150886;28;20061;-73
2023/12/07 07:02:58;;;;;;;26.48;14.23;;;2.40;99.90;;;;;;4132583;28;20096;-73
2023/12/07 07:04:58;;;;;;;22.90;14.50;;;2.40;99.90;;;;;;4142767;28;20041;-74
2023/12/07 07:06:59;;;;;;;24.10;14.73;;;2.40;99.90;;;;;;4152114;28;20049;-74
2023/12/07 07:08:59;;;;;;;25.08;14.00;;;2.40;99.90;;;;;;4149646;28;20438;-74
2023/12/07 07:11:00;;;;;;;22.00;13.75;;;2.50;99.90;;;;;;4154370;28;20491;-74
2023/12/07 07:13:04;;;;;;;25.58;15.23;;;2.40;99.90;;;;;;4154275;28;20467;-73
2023/12/07 07:15:07;;;;;;;25.23;15.40;;;2.50;99.90;;;;;;4148080;28;20060;-73
2023/12/07 07:17:08;;;;;;;25.45;14.20;;;2.50;99.90;;;;;;4134364;28;20088;-73
2023/12/07 07:19:09;;;;;;;24.55;14.73;;;2.50;99.90;;;;;;4133864;28;20061;-73
2023/12/07 07:21:10;;;;;;;25.52;16.27;;;2.50;99.90;;;;;;4150575;28;20511;-73
2023/12/07 07:23:10;;;;;;;25.40;14.52;;;2.60;99.90;;;;;;4151632;28;20047;-73
2023/12/07 07:25:11;;;;;;;28.00;16.90;;;2.60;99.90;;;;;;4149562;28;20057;-73
2023/12/07 07:27:12;;;;;;;25.05;14.70;;;2.60;99.90;;;;;;4151836;28;20064;-74
2023/12/07 07:29:12;;;;;;;26.63;16.00;;;2.60;99.90;;;;;;4150128;28;20069;-72
2023/12/07 07:31:13;;;;;;;28.23;15.50;;;2.60;99.90;;;;;;4149648;28;20104;-72
2023/12/07 07:33:13;;;;;;;27.80;16.08;;;2.60;99.90;;;;;;4152373;28;20423;-72
2023/12/07 07:35:14;;;;;;;23.95;14.77;;;2.70;99.90;;;;;;4150841;28;20489;-73
2023/12/07 07:37:15;;;;;;;28.13;16.27;;;2.70;99.90;;;;;;4153361;28;20087;-72
2023/12/07 07:39:16;;;;;;;27.95;16.27;;;2.70;99.90;;;;;;4150092;28;20044;-72
2023/12/07 07:41:16;;;;;;;26.83;16.13;;;2.80;99.90;;;;;;4141003;28;20415;-72
2023/12/07 07:43:17;;;;;;;28.08;17.15;;;2.80;99.90;;;;;;4153408;28;20124;-72
2023/12/07 07:45:18;;;;;;;28.20;16.58;;;2.70;99.90;;;;;;4149478;28;20464;-73
2023/12/07 07:47:19;;;;;;;27.70;16.33;;;2.70;99.90;;;;;;4152888;28;20068;-71
2023/12/07 07:49:20;;;;;;;26.83;16.00;;;2.80;99.90;;;;;;4150237;28;20046;-72
2023/12/07 07:51:20;;;;;;;28.98;16.10;;;2.80;99.90;;;;;;4152376;28;20436;-73
2023/12/07 07:53:21;;;;;;;29.67;16.45;;;2.80;99.90;;;;;;4152138;28;20026;-73
2023/12/07 07:55:22;;;;;;;26.42;15.68;;;2.70;99.90;;;;;;4152786;28;20037;-72
2023/12/07 07:57:22;;;;;;;28.75;16.40;;;2.80;99.90;;;;;;4153406;28;20025;-72
2023/12/07 07:59:23;;;;;;;33.03;17.80;;;2.80;99.90;;;;;;4150173;28;20034;-73
2023/12/07 08:01:23;;;;;;;28.35;16.95;;;2.80;99.90;;;;;;4151731;28;20395;-73
2023/12/07 08:03:24;;;;;;;26.60;16.05;;;2.70;99.90;;;;;;4151838;28;20042;-73
2023/12/07 08:05:25;;;;;;;29.20;16.67;;;2.80;99.90;;;;;;4152487;28;20168;-73
2023/12/07 08:07:25;;;;;;;35.40;17.67;;;2.70;99.90;;;;;;4145549;28;20153;-73
2023/12/07 08:09:26;;;;;;;32.25;17.45;;;2.80;99.90;;;;;;4148647;28;20029;-72
2023/12/07 08:11:26;;;;;;;30.63;17.88;;;2.80;99.90;;;;;;4132968;28;21024;-72
2023/12/07 08:13:27;;;;;;;30.00;17.75;;;2.80;99.90;;;;;;4153445;28;20033;-72
2023/12/07 08:15:28;;;;;;;38.10;19.00;;;2.80;99.90;;;;;;4149904;28;20088;-73
2023/12/07 08:17:29;;;;;;;33.15;18.13;;;2.70;99.90;;;;;;4149563;28;20037;-72
2023/12/07 08:19:33;;;;;;;32.47;17.17;;;2.80;99.90;;;;;;4148460;28;20072;-71
2023/12/07 08:21:34;;;;;;;30.83;16.80;;;2.80;99.90;;;;;;4155113;28;20471;-72
2023/12/07 08:23:35;;;;;;;28.40;16.08;;;2.80;99.90;;;;;;4153504;28;20445;-72
2023/12/07 08:25:38;;;;;;;26.30;15.48;;;2.90;99.90;;;;;;4150160;28;20129;-72
2023/12/07 08:27:39;;;;;;;29.65;17.08;;;2.90;99.90;;;;;;4155129;28;20495;-72
2023/12/07 08:29:40;;;;;;;33.53;19.25;;;2.90;99.90;;;;;;4135378;28;20061;-72
2023/12/07 08:31:40;;;;;;;33.13;18.80;;;2.90;99.90;;;;;;4154971;28;20026;-71
2023/12/07 08:33:41;;;;;;;28.63;17.40;;;2.90;99.90;;;;;;4156058;28;21129;-71
2023/12/07 08:35:42;;;;;;;29.08;17.10;;;2.90;99.90;;;;;;4154376;28;20387;-72
2023/12/07 08:37:42;;;;;;;27.67;16.52;;;2.90;99.90;;;;;;4155197;28;20037;-71
2023/12/07 08:39:43;;;;;;;27.30;16.60;;;2.80;99.90;;;;;;4152350;28;20430;-72
2023/12/07 08:41:43;;;;;;;29.55;17.38;;;2.90;99.90;;;;;;4153648;28;20419;-71
2023/12/07 08:43:44;;;;;;;30.17;17.17;;;2.90;99.90;;;;;;4154635;28;20095;-72
2023/12/07 08:45:45;;;;;;;27.77;16.92;;;2.80;99.90;;;;;;4147538;28;20033;-72
2023/12/07 08:47:46;;;;;;;28.50;17.23;;;2.90;99.90;;;;;;4149300;28;20041;-71
2023/12/07 08:49:46;;;;;;;30.55;17.50;;;2.90;99.90;;;;;;4149561;28;20053;-71
2023/12/07 08:51:47;;;;;;;28.55;16.85;;;2.90;99.90;;;;;;4139749;28;20033;-72
2023/12/07 08:53:48;;;;;;;31.63;17.95;;;2.90;99.90;;;;;;4133839;28;20042;-71
2023/12/07 08:55:48;;;;;;;33.33;17.98;;;2.80;99.90;;;;;;4133792;28;20042;-71
2023/12/07 08:57:49;;;;;;;28.80;17.65;;;2.80;99.90;;;;;;4154336;28;20984;-71
2023/12/07 08:59:49;;;;;;;30.75;17.35;;;2.80;99.90;;;;;;4151818;28;20042;-72
2023/12/07 09:01:50;;;;;;;31.58;17.67;;;2.90;99.90;;;;;;4151858;28;20716;-72
2023/12/07 09:03:51;;;;;;;30.52;18.52;;;2.80;99.90;;;;;;4139600;28;20108;-71
2023/12/07 09:05:51;;;;;;;27.30;16.23;;;2.80;99.90;;;;;;4152214;28;20037;-72
2023/12/07 09:07:52;;;;;;;52.55;17.20;;;2.80;99.90;;;;;;4152140;28;20391;-71
2023/12/07 09:09:53;;;;;;;46.53;16.60;;;2.90;99.90;;;;;;4153281;28;20052;-72
2023/12/07 09:11:54;;;;;;;39.70;18.08;;;2.80;99.90;;;;;;4140444;28;20469;-71
2023/12/07 09:13:54;;;;;;;30.27;17.02;;;2.80;99.90;;;;;;4154210;28;20040;-72
2023/12/07 09:15:55;;;;;;;30.48;16.58;;;2.90;99.90;;;;;;4154006;28;20503;-72
2023/12/07 09:17:55;;;;;;;33.10;17.33;;;2.90;99.90;;;;;;4154799;28;20069;-71
2023/12/07 09:19:56;;;;;;;38.55;19.52;;;2.90;99.90;;;;;;4141507;28;20038;-72
2023/12/07 09:21:58;;;;;;;34.38;17.25;;;2.90;99.90;;;;;;4140209;28;20030;-71
2023/12/07 09:23:59;;;;;;;41.22;19.40;;;2.90;99.90;;;;;;4150955;28;20038;-71
2023/12/07 09:25:59;;;;;;;35.35;18.38;;;2.90;99.90;;;;;;4153749;28;20057;-72
2023/12/07 09:28:00;;;;;;;37.80;18.73;;;3.00;99.90;;;;;;4153928;28;20036;-72
2023/12/07 09:30:06;;;;;;;34.17;17.88;;;2.90;99.90;;;;;;4148650;28;20144;-74
2023/12/07 09:32:07;;;;;;;36.55;18.70;;;2.90;99.90;;;;;;4154123;28;20100;-74
2023/12/07 09:34:08;;;;;;;34.83;17.77;;;3.00;99.90;;;;;;4151491;28;20433;-74
2023/12/07 09:36:11;;;;;;;31.80;17.05;;;3.00;99.90;;;;;;4151291;28;20037;-74
2023/12/07 09:38:11;;;;;;;33.42;16.75;;;3.00;99.90;;;;;;4126634;28;20660;-73
2023/12/07 09:40:24;;;;;;;29.27;16.98;;;3.00;99.90;;;;;;4134182;28;20046;-73
2023/12/07 09:42:25;;;;;;;27.77;16.23;;;3.00;99.90;;;;;;4153463;28;20041;-74
2023/12/07 09:44:26;;;;;;;29.38;16.38;;;3.00;99.90;;;;;;4152780;28;20105;-73
2023/12/07 09:46:28;;;;;;;30.55;15.40;;;3.00;99.90;;;;;;4153090;28;20029;-74
2023/12/07 09:48:29;;;;;;;27.33;15.40;;;3.00;99.90;;;;;;4136038;28;20427;-74
2023/12/07 09:50:30;;;;;;;27.85;16.40;;;3.10;99.90;;;;;;4153061;28;20042;-74
2023/12/07 09:52:31;;;;;;;27.60;16.02;;;3.10;99.90;;;;;;4153215;28;20080;-74
2023/12/07 09:54:32;;;;;;;27.48;15.30;;;3.20;99.90;;;;;;4152268;28;20091;-73
2023/12/07 09:56:33;;;;;;;26.02;15.02;;;3.20;99.90;;;;;;4152292;28;20056;-74
2023/12/07 09:58:33;;;;;;;26.02;15.18;;;3.20;99.90;;;;;;4152098;28;20038;-73
2023/12/07 10:00:35;;;;;;;25.10;14.75;;;3.30;99.90;;;;;;4150537;28;20434;-74
2023/12/07 10:02:38;;;;;;;27.75;15.57;;;3.40;99.90;;;;;;4153205;28;20076;-73
2023/12/07 10:04:39;;;;;;;28.33;15.95;;;3.50;99.90;;;;;;4153862;28;20041;-73
2023/12/07 10:06:47;;;;;;;27.98;15.98;;;3.50;99.90;;;;;;4152036;28;20127;-74
2023/12/07 10:08:48;;;;;;;27.80;15.40;;;3.60;99.90;;;;;;4133904;28;20038;-74
2023/12/07 10:11:12;;;;;;;27.38;15.75;;;3.70;99.90;;;;;;4150848;28;20120;-74
2023/12/07 10:13:13;;;;;;;27.73;15.18;;;3.80;99.90;;;;;;4125071;28;20160;-74
2023/12/07 10:15:19;;;;;;;25.52;15.13;;;3.90;99.90;;;;;;4152849;28;20029;-74
2023/12/07 10:17:20;;;;;;;21.50;14.30;;;3.90;99.90;;;;;;4152609;28;20042;-73
2023/12/07 10:19:24;;;;;;;23.83;14.85;;;4.00;99.90;;;;;;4152651;28;20388;-74
2023/12/07 10:21:33;;;;;;;23.20;14.20;;;4.10;99.90;;;;;;4135016;28;20038;-74
2023/12/07 10:23:35;;;;;;;23.23;14.38;;;4.10;99.90;;;;;;4142503;28;20040;-74